This is the latest recevied weather packets stored in our database for station/object EA3FHP. If no packets are shown the sender has not sent any weather packets the latest 10 day(s).
| Time | Temp. | Humidity | Pressure | Rain* | Wind** | Luminosity | Snow |
|---|---|---|---|---|---|---|---|
| 1787605804 | 18.33° C | 79% | 1014.8 hPa | 0 mm | - | - | - |
| 1787605204 | 18.33° C | 80% | 1015 hPa | 0 mm | - | - | - |
| 1787604605 | 18.33° C | 79% | 1015 hPa | 0 mm | - | - | - |
| 1787604003 | 18.89° C | 79% | 1014.9 hPa | 0 mm | - | - | - |
| 1787603404 | 18.89° C | 78% | 1015 hPa | 0 mm | - | - | - |
| 1787602803 | 19.44° C | 78% | 1014.5 hPa | 0 mm | - | - | - |
| 1787602203 | 19.44° C | 77% | 1014.4 hPa | 0 mm | - | - | - |
| 1787601604 | 19.44° C | 77% | 1014.4 hPa | 0 mm | - | - | - |
| 1787601004 | 20° C | 75% | 1014.5 hPa | 0 mm | - | - | - |
| 1787592005 | 26.11° C | 71% | 1012.8 hPa | 0 mm | - | - | - |
| 1787591403 | 26.11° C | 70% | 1012.7 hPa | 0 mm | - | - | - |
| 1787590806 | 25.56° C | 71% | 1012.7 hPa | 0 mm | - | - | - |
| 1787590203 | 25.56° C | 69% | 1012.7 hPa | 0 mm | - | - | - |
| 1787589604 | 25.56° C | 69% | 1012.8 hPa | 0 mm | - | - | - |
| 1787589006 | 25.56° C | 68% | 1012.4 hPa | 0 mm | - | - | - |
| 1787588404 | 25.56° C | 66% | 1011.8 hPa | 0 mm | - | - | - |
| 1787587804 | 25.56° C | 63% | 1012 hPa | 0 mm | - | - | - |
| 1787587204 | 26.67° C | 61% | 1012.4 hPa | 0 mm | - | - | - |
| 1787586603 | 26.67° C | 62% | 1012.2 hPa | 0 mm | - | - | - |
| 1787586003 | 27.22° C | 63% | 1011.6 hPa | 0 mm | - | - | - |
| 1787585403 | 27.78° C | 61% | 1011.7 hPa | 0 mm | - | - | - |
| 1787584803 | 27.78° C | 59% | 1012 hPa | 0 mm | - | - | - |
| 1787584203 | 27.78° C | 58% | 1011.6 hPa | 0 mm | - | - | - |
| 1787583603 | 28.33° C | 61% | 1011.7 hPa | 0 mm | - | - | - |
| 1787583003 | 27.78° C | 62% | 1012.1 hPa | 0 mm | - | - | - |
* Rain latest hour (hover to see other rain measurements)
** Current wind speed in m/s (hover to see current wind gust speed)